Time;durP1;ratioP1;P1;durP2;ratioP2;P2;SDS_P1;SDS_P2;PMS_P1;PMS_P2;Temp;Humidity;BMP_temperature;BMP_pressure;BME280_temperature;BME280_humidity;BME280_pressure;Samples;Min_cycle;Max_cycle;Signal;HPM_P1;HPM_P2
2022/04/22 00:00:26;;;;;;;6.80;4.90;;;15.70;51.90;;;;;;5106383;28;20446;-70
2022/04/22 00:02:55;;;;;;;7.00;5.60;;;15.70;52.10;;;;;;5106521;28;20502;-69
2022/04/22 00:05:22;;;;;;;5.70;5.13;;;15.70;52.30;;;;;;5106578;28;20455;-69
2022/04/22 00:07:49;;;;;;;5.53;5.03;;;15.60;52.20;;;;;;5106682;28;20547;-71
2022/04/22 00:10:16;;;;;;;7.93;5.23;;;15.60;52.50;;;;;;5106883;28;20459;-70
2022/04/22 00:12:44;;;;;;;5.93;5.23;;;15.60;52.80;;;;;;5106655;28;20494;-70
2022/04/22 00:15:13;;;;;;;6.10;5.60;;;15.60;52.90;;;;;;5106488;28;20497;-70
2022/04/22 00:17:41;;;;;;;6.37;5.43;;;15.50;53.00;;;;;;5112105;28;20444;-70
2022/04/22 00:20:12;;;;;;;6.00;5.43;;;15.50;53.30;;;;;;5111134;28;20435;-70
2022/04/22 00:22:40;;;;;;;6.77;6.07;;;15.50;53.40;;;;;;5106069;28;20489;-70
2022/04/22 00:25:09;;;;;;;8.17;6.20;;;15.40;53.60;;;;;;5106502;28;20479;-69
2022/04/22 00:27:36;;;;;;;6.17;5.57;;;15.40;53.70;;;;;;5106831;28;20452;-69
2022/04/22 00:30:05;;;;;;;6.70;5.80;;;15.40;53.90;;;;;;5105955;28;20447;-70
2022/04/22 00:32:34;;;;;;;8.23;5.70;;;15.30;54.10;;;;;;5105156;28;20498;-70
2022/04/22 00:35:00;;;;;;;6.57;5.97;;;15.30;54.30;;;;;;5107192;28;20452;-69
2022/04/22 00:37:28;;;;;;;6.57;4.93;;;15.30;54.60;;;;;;5106325;28;20447;-69
2022/04/22 00:39:56;;;;;;;8.83;5.50;;;15.20;54.80;;;;;;5106641;28;20455;-70
2022/04/22 00:42:24;;;;;;;6.90;6.30;;;15.20;55.00;;;;;;5106052;28;20463;-69
2022/04/22 00:44:51;;;;;;;7.00;6.30;;;15.10;55.20;;;;;;5112833;28;20436;-70
2022/04/22 00:47:18;;;;;;;6.87;6.27;;;15.10;55.40;;;;;;5109913;28;20448;-69
2022/04/22 00:49:45;;;;;;;6.27;5.67;;;15.00;55.60;;;;;;5105705;28;20470;-69
2022/04/22 00:52:12;;;;;;;7.27;6.57;;;14.90;55.70;;;;;;5105841;28;20499;-70
2022/04/22 00:54:40;;;;;;;5.93;5.17;;;14.80;55.80;;;;;;5106045;28;20832;-70
2022/04/22 00:57:07;;;;;;;7.00;6.30;;;14.70;55.90;;;;;;5105646;28;20469;-69
2022/04/22 00:59:36;;;;;;;7.00;6.30;;;14.60;56.10;;;;;;5104934;28;20455;-69
2022/04/22 01:02:02;;;;;;;7.43;6.73;;;14.50;56.20;;;;;;5104464;28;20459;-70
2022/04/22 01:09:59;;;;;;;7.27;6.50;;;14.30;57.10;;;;;;5103281;28;20489;-70
2022/04/22 01:12:30;;;;;;;8.63;7.50;;;14.30;57.40;;;;;;5104055;28;20483;-70
2022/04/22 01:14:58;;;;;;;7.47;6.60;;;14.20;57.70;;;;;;5104055;28;20493;-70
2022/04/22 01:17:26;;;;;;;8.23;7.40;;;14.20;58.10;;;;;;5105277;28;20781;-69
2022/04/22 01:19:53;;;;;;;8.20;7.40;;;14.10;58.30;;;;;;5103927;28;20459;-69
2022/04/22 01:22:22;;;;;;;7.10;6.57;;;14.10;58.80;;;;;;5103745;28;20463;-70
2022/04/22 01:24:50;;;;;;;7.00;6.30;;;14.10;59.10;;;;;;5103896;28;20453;-69
2022/04/22 01:27:17;;;;;;;9.23;8.40;;;14.00;59.30;;;;;;5104730;28;20943;-68
2022/04/22 01:29:44;;;;;;;9.93;8.00;;;14.00;59.70;;;;;;5104428;28;20455;-69
2022/04/22 01:32:11;;;;;;;8.80;7.90;;;14.00;60.60;;;;;;5104332;28;20483;-70
2022/04/22 01:34:38;;;;;;;8.60;7.33;;;14.00;61.20;;;;;;5105351;28;20443;-69
2022/04/22 01:37:06;;;;;;;9.73;7.37;;;14.00;61.60;;;;;;5104947;28;20463;-69
2022/04/22 01:39:34;;;;;;;7.40;6.80;;;13.90;61.90;;;;;;5103750;28;20448;-70
2022/04/22 01:42:01;;;;;;;8.00;7.30;;;13.90;62.40;;;;;;5103578;28;20479;-69
2022/04/22 01:44:28;;;;;;;8.27;7.53;;;13.90;62.60;;;;;;5102982;28;20479;-70
2022/04/22 01:46:55;;;;;;;8.00;7.30;;;13.90;62.90;;;;;;5104412;28;20455;-68
2022/04/22 01:49:22;;;;;;;8.40;7.63;;;13.90;63.10;;;;;;5104579;28;20451;-70
2022/04/22 01:51:49;;;;;;;10.03;7.80;;;13.90;63.40;;;;;;5103744;28;20468;-70
2022/04/22 01:54:17;;;;;;;9.17;8.27;;;13.90;63.80;;;;;;5104807;28;20435;-68
2022/04/22 01:56:45;;;;;;;9.70;8.20;;;13.80;64.10;;;;;;5104745;28;20451;-69
2022/04/22 01:59:12;;;;;;;8.57;7.70;;;13.80;64.10;;;;;;5103780;28;20512;-69
2022/04/22 02:01:39;;;;;;;8.10;7.30;;;13.70;64.10;;;;;;5104344;28;20472;-70
2022/04/22 02:04:05;;;;;;;8.50;7.80;;;13.70;64.40;;;;;;5104139;28;20436;-68
2022/04/22 02:06:33;;;;;;;9.03;8.23;;;13.70;64.50;;;;;;5105752;28;20462;-69
2022/04/22 02:09:00;;;;;;;14.63;8.70;;;13.70;64.70;;;;;;5104487;28;20450;-69
2022/04/22 02:11:26;;;;;;;9.00;7.80;;;13.60;64.90;;;;;;5103813;28;20475;-70
2022/04/22 02:13:54;;;;;;;9.03;8.13;;;13.60;64.80;;;;;;5104643;28;20487;-70
2022/04/22 02:16:21;;;;;;;8.63;7.73;;;13.60;64.80;;;;;;5104206;28;20448;-68
2022/04/22 02:18:49;;;;;;;8.77;7.97;;;13.50;64.90;;;;;;5105816;28;20452;-68
2022/04/22 02:21:15;;;;;;;7.03;6.30;;;13.50;65.30;;;;;;5103209;28;20467;-70
2022/04/22 02:23:42;;;;;;;11.10;8.10;;;13.40;65.40;;;;;;5106308;28;20455;-70
2022/04/22 02:26:09;;;;;;;8.73;7.60;;;13.40;65.60;;;;;;5107506;28;20458;-69
2022/04/22 02:28:35;;;;;;;8.70;7.87;;;13.40;65.80;;;;;;5103367;28;20447;-70
2022/04/22 02:31:06;;;;;;;9.27;7.73;;;13.30;65.90;;;;;;5102984;28;20478;-70
2022/04/22 02:33:33;;;;;;;8.57;7.77;;;13.30;66.10;;;;;;5103060;28;20241;-69
2022/04/22 02:36:00;;;;;;;8.80;7.57;;;13.30;66.20;;;;;;5103453;28;20455;-69
2022/04/22 02:38:28;;;;;;;8.67;7.97;;;13.30;66.40;;;;;;5104184;28;20444;-70
2022/04/22 02:46:27;;;;;;;8.53;6.90;;;13.30;66.60;;;;;;5117057;28;20404;-68
2022/04/22 02:48:56;;;;;;;10.40;8.33;;;13.20;66.40;;;;;;5117503;28;20451;-70
2022/04/22 02:51:23;;;;;;;9.10;8.33;;;13.20;66.70;;;;;;5105981;28;20458;-70
2022/04/22 02:53:50;;;;;;;9.43;8.17;;;13.10;66.50;;;;;;5103690;28;20479;-69
2022/04/22 02:56:18;;;;;;;8.07;7.27;;;13.10;66.20;;;;;;5106377;28;20943;-69
2022/04/22 02:58:45;;;;;;;9.50;7.50;;;13.10;66.30;;;;;;5107011;28;20447;-68
2022/04/22 03:01:13;;;;;;;9.57;8.57;;;13.10;66.50;;;;;;5106227;28;20471;-70
2022/04/22 03:03:41;;;;;;;8.93;8.03;;;13.00;66.40;;;;;;5107553;28;20870;-69
2022/04/22 03:06:08;;;;;;;8.70;7.80;;;13.00;66.50;;;;;;5107167;28;20451;-69
2022/04/22 03:08:35;;;;;;;8.90;8.10;;;12.90;66.50;;;;;;5106590;28;20447;-69
2022/04/22 03:11:02;;;;;;;9.70;8.10;;;12.90;66.50;;;;;;5106356;28;20475;-70
2022/04/22 03:13:29;;;;;;;10.60;8.20;;;12.90;66.70;;;;;;5105613;28;20484;-70
2022/04/22 03:15:57;;;;;;;8.30;7.57;;;12.80;66.70;;;;;;5105262;28;20871;-70
2022/04/22 03:18:24;;;;;;;10.10;8.33;;;12.80;66.90;;;;;;5106417;28;20452;-70
2022/04/22 03:20:52;;;;;;;8.40;7.53;;;12.80;67.10;;;;;;5105221;28;20452;-70
2022/04/22 03:23:19;;;;;;;9.53;8.20;;;12.70;67.20;;;;;;5106106;28;20455;-70
2022/04/22 03:25:47;;;;;;;8.30;7.53;;;12.70;67.50;;;;;;5106298;28;20450;-69
2022/04/22 03:28:13;;;;;;;9.70;8.67;;;12.70;68.10;;;;;;5106233;28;20451;-68
2022/04/22 03:30:40;;;;;;;8.57;7.77;;;12.60;68.40;;;;;;5106651;28;20969;-70
2022/04/22 03:33:07;;;;;;;9.33;8.37;;;12.60;68.60;;;;;;5105907;28;20486;-68
2022/04/22 03:35:34;;;;;;;9.53;8.03;;;12.60;68.90;;;;;;5105452;28;20517;-68
2022/04/22 03:38:02;;;;;;;11.57;8.53;;;12.50;69.20;;;;;;5104760;28;20833;-68
2022/04/22 03:40:29;;;;;;;10.00;8.40;;;12.50;70.50;;;;;;5104694;28;20452;-70
2022/04/22 03:42:55;;;;;;;12.93;8.00;;;12.50;70.20;;;;;;5105467;28;20460;-68
2022/04/22 03:45:23;;;;;;;11.00;8.47;;;12.50;70.50;;;;;;5105618;28;20455;-68
2022/04/22 03:47:49;;;;;;;10.23;8.93;;;12.50;70.80;;;;;;5105592;28;20828;-69
2022/04/22 03:50:16;;;;;;;11.00;9.00;;;12.50;71.20;;;;;;5106471;28;20448;-68
2022/04/22 03:52:43;;;;;;;9.27;8.37;;;12.50;71.20;;;;;;5105086;28;20489;-69
2022/04/22 03:55:12;;;;;;;10.70;8.60;;;12.50;71.30;;;;;;5104162;28;20456;-68
2022/04/22 04:00:23;;;;;;;10.47;8.60;;;12.50;71.70;;;;;;5103986;28;20411;-70
2022/04/22 04:02:49;;;;;;;11.93;9.00;;;12.40;71.70;;;;;;5104120;28;20844;-69
2022/04/22 04:05:16;;;;;;;11.57;9.40;;;12.40;71.90;;;;;;5104599;28;20448;-69
2022/04/22 04:07:43;;;;;;;9.97;8.87;;;12.40;71.90;;;;;;5103119;28;20443;-69
2022/04/22 04:15:59;;;;;;;9.47;8.57;;;12.30;72.10;;;;;;5104701;28;20408;-68
2022/04/22 04:18:26;;;;;;;11.90;9.73;;;12.30;72.30;;;;;;5104379;28;20500;-68
2022/04/22 04:23:37;;;;;;;11.57;10.47;;;12.30;72.80;;;;;;5103891;28;20422;-69
2022/04/22 04:26:06;;;;;;;11.20;10.03;;;12.30;73.10;;;;;;5103141;28;20447;-69
2022/04/22 04:28:34;;;;;;;13.47;10.20;;;12.20;73.20;;;;;;5103491;28;20935;-69
2022/04/22 04:31:01;;;;;;;11.93;10.00;;;12.20;73.40;;;;;;5102235;28;21009;-69
2022/04/22 04:33:28;;;;;;;10.47;9.47;;;12.20;73.40;;;;;;5100448;28;20828;-68
2022/04/22 04:35:55;;;;;;;10.77;9.67;;;12.20;73.60;;;;;;5101030;28;20452;-69
2022/04/22 04:38:22;;;;;;;12.27;11.07;;;12.20;73.80;;;;;;5100905;28;20454;-69
2022/04/22 04:40:49;;;;;;;13.60;11.10;;;12.20;74.00;;;;;;5101823;28;20448;-68
2022/04/22 04:43:18;;;;;;;13.77;11.30;;;12.20;74.30;;;;;;5102052;28;20439;-69
2022/04/22 04:45:45;;;;;;;13.33;11.03;;;12.20;74.60;;;;;;5099983;28;20973;-69
2022/04/22 04:48:12;;;;;;;14.50;10.73;;;12.10;74.60;;;;;;5099985;28;20454;-69
2022/04/22 04:50:43;;;;;;;14.13;12.73;;;12.10;74.70;;;;;;5101724;28;20823;-69
2022/04/22 04:53:10;;;;;;;13.30;11.00;;;12.10;75.00;;;;;;5101703;28;20476;-70
2022/04/22 04:55:37;;;;;;;13.27;10.57;;;12.10;75.10;;;;;;5102993;28;20804;-68
2022/04/22 04:58:04;;;;;;;11.87;9.83;;;12.10;75.60;;;;;;5101346;28;20518;-69
2022/04/22 05:00:32;;;;;;;12.17;11.07;;;12.20;76.20;;;;;;5100656;28;20456;-69
2022/04/22 05:02:59;;;;;;;11.93;10.47;;;12.20;76.40;;;;;;5099726;28;20444;-70
2022/04/22 05:05:26;;;;;;;14.17;11.30;;;12.20;76.80;;;;;;5100300;28;20911;-68
2022/04/22 05:07:56;;;;;;;13.37;11.77;;;12.20;77.20;;;;;;5100269;28;20451;-68
2022/04/22 05:10:23;;;;;;;13.63;12.30;;;12.30;77.70;;;;;;5099663;28;20456;-69
2022/04/22 05:12:51;;;;;;;17.07;13.00;;;12.30;77.80;;;;;;5099999;28;20463;-70
2022/04/22 05:15:19;;;;;;;12.30;11.10;;;12.30;77.90;;;;;;5099172;28;20866;-69
2022/04/22 05:17:48;;;;;;;16.23;13.17;;;12.30;78.10;;;;;;5100910;28;20451;-68
2022/04/22 05:20:16;;;;;;;14.57;12.80;;;12.30;78.50;;;;;;5100219;28;20461;-70
2022/04/22 05:22:44;;;;;;;12.73;11.00;;;12.40;78.60;;;;;;5100393;28;20474;-68
2022/04/22 05:25:13;;;;;;;14.20;12.80;;;12.40;78.80;;;;;;5100418;28;20990;-68
2022/04/22 05:27:42;;;;;;;14.77;13.13;;;12.40;79.00;;;;;;5099919;28;20452;-68
2022/04/22 05:32:56;;;;;;;13.57;12.17;;;12.50;78.70;;;;;;5099764;28;20486;-70
2022/04/22 05:35:26;;;;;;;15.63;12.60;;;12.50;79.00;;;;;;5101836;28;20898;-68
2022/04/22 05:37:54;;;;;;;15.40;13.80;;;12.50;79.30;;;;;;5101539;28;20510;-70
2022/04/22 05:40:22;;;;;;;14.73;12.10;;;12.50;79.30;;;;;;5099528;28;20521;-69
2022/04/22 05:42:50;;;;;;;13.30;11.90;;;12.60;79.70;;;;;;5100266;28;20479;-70
2022/04/22 05:45:18;;;;;;;18.07;13.93;;;12.60;78.80;;;;;;5100946;28;20451;-68
2022/04/22 05:47:45;;;;;;;14.43;11.87;;;12.70;79.30;;;;;;5100676;28;20455;-68
2022/04/22 05:50:15;;;;;;;16.47;14.77;;;12.70;79.00;;;;;;5100081;28;20447;-69
2022/04/22 05:52:42;;;;;;;13.90;12.50;;;12.70;78.60;;;;;;5100473;28;20472;-70
2022/04/22 05:55:12;;;;;;;15.73;13.90;;;12.80;78.50;;;;;;5098292;28;21033;-70
2022/04/22 05:57:39;;;;;;;17.83;15.73;;;12.90;79.40;;;;;;5098919;28;20853;-69
2022/04/22 06:00:09;;;;;;;18.57;14.10;;;12.90;80.20;;;;;;5099233;28;20451;-70
2022/04/22 06:02:36;;;;;;;16.47;14.30;;;13.00;79.80;;;;;;5099703;28;20468;-70
2022/04/22 06:05:03;;;;;;;17.50;13.30;;;13.00;79.40;;;;;;5100979;28;20965;-68
2022/04/22 06:07:31;;;;;;;14.80;13.10;;;13.10;79.40;;;;;;5099491;28;20454;-69
2022/04/22 06:12:42;;;;;;;14.67;13.13;;;13.20;79.00;;;;;;5099831;28;20493;-70
2022/04/22 06:15:09;;;;;;;15.77;13.07;;;13.20;78.50;;;;;;5099326;28;20491;-70
2022/04/22 06:17:36;;;;;;;16.20;12.53;;;13.30;78.00;;;;;;5100205;28;20450;-70
2022/04/22 06:20:03;;;;;;;17.40;15.60;;;13.30;78.10;;;;;;5099661;28;20463;-70
2022/04/22 06:22:31;;;;;;;15.27;13.00;;;13.40;78.60;;;;;;5099178;28;20474;-69
2022/04/22 06:24:59;;;;;;;17.13;15.37;;;13.40;79.00;;;;;;5099403;28;20448;-69
2022/04/22 06:27:27;;;;;;;16.80;14.90;;;13.50;79.00;;;;;;5101196;28;20508;-69
2022/04/22 06:29:55;;;;;;;17.70;15.03;;;13.60;78.30;;;;;;5100150;28;20448;-69
2022/04/22 06:32:26;;;;;;;20.03;16.20;;;13.70;78.50;;;;;;5103765;28;20468;-69
2022/04/22 06:34:53;;;;;;;16.00;13.97;;;13.80;78.00;;;;;;5105962;28;20468;-68
2022/04/22 06:37:21;;;;;;;16.50;14.10;;;13.80;77.70;;;;;;5105536;28;20522;-69
2022/04/22 06:48:06;;;;;;;16.50;13.47;;;14.20;76.20;;;;;;5106352;28;20407;-69
2022/04/22 06:50:34;;;;;;;16.10;14.30;;;14.30;75.70;;;;;;5104430;28;20447;-69
2022/04/22 06:53:01;;;;;;;19.00;14.27;;;14.40;75.50;;;;;;5107740;28;20447;-70
2022/04/22 06:55:29;;;;;;;16.87;15.07;;;14.50;75.00;;;;;;5107984;28;20487;-69
2022/04/22 06:58:00;;;;;;;19.43;15.87;;;14.60;75.10;;;;;;5118097;28;20443;-69
2022/04/22 07:00:27;;;;;;;16.80;15.00;;;14.70;74.80;;;;;;5110167;28;20440;-69
2022/04/22 07:02:55;;;;;;;17.37;15.57;;;14.80;75.10;;;;;;5105827;28;20869;-70
2022/04/22 07:05:22;;;;;;;15.47;13.50;;;15.00;75.20;;;;;;5106250;28;20477;-69
2022/04/22 07:07:49;;;;;;;13.50;11.47;;;15.00;74.00;;;;;;5118574;28;20444;-69
2022/04/22 07:10:17;;;;;;;13.03;11.73;;;15.10;72.80;;;;;;5120226;28;20471;-70
2022/04/22 07:12:45;;;;;;;12.70;11.50;;;15.30;73.00;;;;;;5113643;28;20479;-70
2022/04/22 07:15:13;;;;;;;12.87;11.57;;;15.40;72.50;;;;;;5108368;28;20479;-70
2022/04/22 07:17:41;;;;;;;13.50;12.10;;;15.50;71.30;;;;;;5107140;28;20454;-70
2022/04/22 07:20:11;;;;;;;14.83;11.27;;;15.70;70.50;;;;;;5106083;28;20947;-70
2022/04/22 07:22:39;;;;;;;14.10;11.70;;;15.90;70.20;;;;;;5110173;28;20473;-70
2022/04/22 07:25:07;;;;;;;16.00;14.40;;;16.00;68.50;;;;;;5114141;28;20444;-70
2022/04/22 07:27:35;;;;;;;13.60;12.30;;;16.20;67.60;;;;;;5106742;28;20448;-69
2022/04/22 07:30:05;;;;;;;14.93;13.53;;;16.20;66.70;;;;;;5105573;28;20455;-70
2022/04/22 07:32:32;;;;;;;15.83;14.30;;;16.30;66.60;;;;;;5104606;28;20467;-70
2022/04/22 07:34:59;;;;;;;15.47;13.63;;;16.40;66.80;;;;;;5106064;28;20483;-69
2022/04/22 07:37:26;;;;;;;13.63;12.33;;;16.40;66.40;;;;;;5105283;28;20503;-70
2022/04/22 07:39:53;;;;;;;15.20;13.80;;;16.50;66.30;;;;;;5103234;28;20958;-70
2022/04/22 07:42:21;;;;;;;14.00;12.60;;;16.60;65.90;;;;;;5105099;28;20967;-70
2022/04/22 07:47:36;;;;;;;13.00;11.80;;;16.70;64.50;;;;;;5106205;28;20489;-70
2022/04/22 07:50:06;;;;;;;15.73;14.10;;;16.60;63.90;;;;;;5103800;28;20451;-70
2022/04/22 07:52:33;;;;;;;14.03;12.63;;;16.60;63.00;;;;;;5104917;28;20463;-70
2022/04/22 07:55:00;;;;;;;15.20;13.70;;;16.60;63.40;;;;;;5105782;28;20486;-69
2022/04/22 07:57:27;;;;;;;14.90;12.73;;;16.60;64.40;;;;;;5106048;28;20435;-69
2022/04/22 07:59:54;;;;;;;13.93;12.63;;;16.50;64.70;;;;;;5105142;28;20440;-70
2022/04/22 08:02:22;;;;;;;15.20;13.63;;;16.50;65.10;;;;;;5104310;28;20460;-69
2022/04/22 08:04:50;;;;;;;13.17;11.87;;;16.50;64.80;;;;;;5105017;28;20505;-70
2022/04/22 08:07:18;;;;;;;14.57;13.07;;;16.40;64.70;;;;;;5106469;28;20519;-69
2022/04/22 08:09:46;;;;;;;13.80;12.50;;;16.30;63.60;;;;;;5105595;28;20955;-70
2022/04/22 08:12:13;;;;;;;12.40;11.13;;;16.30;64.50;;;;;;5105016;28;20468;-69
2022/04/22 08:14:40;;;;;;;14.07;12.70;;;16.20;64.30;;;;;;5105818;28;20490;-69
2022/04/22 08:17:07;;;;;;;13.50;12.10;;;16.00;64.00;;;;;;5106806;28;20451;-69
2022/04/22 08:19:34;;;;;;;16.80;12.80;;;16.00;64.80;;;;;;5105680;28;20458;-69
2022/04/22 08:22:03;;;;;;;14.80;12.30;;;15.80;64.50;;;;;;5105823;28;20474;-71
2022/04/22 08:24:29;;;;;;;17.47;13.13;;;15.80;65.00;;;;;;5105569;28;20480;-69
2022/04/22 08:26:58;;;;;;;14.63;13.00;;;15.90;65.50;;;;;;5105927;28;20448;-69
2022/04/22 08:29:24;;;;;;;15.67;12.93;;;16.00;65.60;;;;;;5105101;28;20452;-69
2022/04/22 08:31:52;;;;;;;11.80;10.77;;;16.00;65.40;;;;;;5104811;28;20468;-70
2022/04/22 08:34:19;;;;;;;12.60;11.43;;;16.20;65.70;;;;;;5105371;28;20479;-70
2022/04/22 08:36:47;;;;;;;14.50;10.67;;;16.40;64.60;;;;;;5105457;28;20436;-69
2022/04/22 08:39:16;;;;;;;14.40;10.43;;;16.50;62.80;;;;;;5103309;28;20463;-70
2022/04/22 08:41:43;;;;;;;11.17;10.07;;;16.80;62.30;;;;;;5101868;28;20468;-69
2022/04/22 08:44:14;;;;;;;10.43;9.47;;;17.20;61.30;;;;;;5104164;28;20448;-69
2022/04/22 08:52:12;;;;;;;10.93;9.83;;;18.40;58.10;;;;;;5103274;28;20439;-70
2022/04/22 08:54:45;;;;;;;11.23;10.20;;;18.70;56.40;;;;;;5103368;28;20509;-70
2022/04/22 08:57:12;;;;;;;10.20;9.30;;;18.80;55.20;;;;;;5105715;28;20435;-70
2022/04/22 08:59:40;;;;;;;8.30;7.60;;;19.00;54.80;;;;;;5105998;28;20447;-70
2022/04/22 09:02:07;;;;;;;10.70;9.30;;;19.20;53.80;;;;;;5105625;28;20830;-70
2022/04/22 09:04:34;;;;;;;10.63;9.70;;;19.20;53.40;;;;;;5104689;28;20954;-70
2022/04/22 09:07:01;;;;;;;10.10;8.13;;;19.30;52.70;;;;;;5103902;28;20971;-69
2022/04/22 09:09:30;;;;;;;10.17;9.27;;;19.50;52.60;;;;;;5102314;28;20448;-70
2022/04/22 09:12:09;;;;;;;9.10;8.17;;;19.70;51.50;;;;;;5102583;28;20550;-70
2022/04/22 09:14:36;;;;;;;8.77;8.07;;;19.90;51.10;;;;;;5102080;28;20482;-69
2022/04/22 09:17:03;;;;;;;9.40;8.60;;;20.20;50.30;;;;;;5100691;28;20459;-69
2022/04/22 09:19:35;;;;;;;10.90;8.07;;;20.50;50.00;;;;;;5102121;28;20451;-69
2022/04/22 09:22:03;;;;;;;8.10;7.47;;;20.80;49.20;;;;;;5102648;28;20475;-70
2022/04/22 09:24:30;;;;;;;9.70;8.80;;;20.90;48.30;;;;;;5104617;28;20436;-70
2022/04/22 09:27:09;;;;;;;9.67;8.87;;;21.00;47.10;;;;;;5105063;28;20447;-70
2022/04/22 09:29:43;;;;;;;9.00;8.30;;;20.90;46.90;;;;;;5103081;28;20470;-70
2022/04/22 09:32:12;;;;;;;9.50;8.57;;;20.90;47.10;;;;;;5103224;28;20471;-70
2022/04/22 09:34:42;;;;;;;8.83;7.93;;;20.80;47.20;;;;;;5103228;28;20483;-70
2022/04/22 09:42:57;;;;;;;8.13;7.30;;;20.80;48.20;;;;;;5045295;28;20438;-70
2022/04/22 09:45:36;;;;;;;8.40;7.70;;;20.70;47.70;;;;;;5102283;28;20444;-70
2022/04/22 09:48:12;;;;;;;8.97;8.10;;;20.60;47.80;;;;;;5102734;28;20457;-69
2022/04/22 09:53:07;;;;;;;8.10;7.17;;;20.40;47.70;;;;;;5012489;28;20510;-71
2022/04/22 09:55:36;;;;;;;8.70;7.93;;;20.60;48.50;;;;;;5014059;28;20529;-70
2022/04/22 09:58:06;;;;;;;8.37;7.57;;;20.90;48.50;;;;;;5014045;28;20455;-70
2022/04/22 10:00:34;;;;;;;8.57;7.87;;;21.10;47.30;;;;;;5014291;28;20446;-70
2022/04/22 10:03:01;;;;;;;9.03;8.13;;;21.50;47.30;;;;;;5013907;28;20812;-70
2022/04/22 10:05:31;;;;;;;8.47;7.73;;;22.00;47.10;;;;;;5013964;28;20840;-70
2022/04/22 10:08:00;;;;;;;11.17;7.77;;;22.40;45.90;;;;;;5017843;28;20809;-70
2022/04/22 10:10:30;;;;;;;9.00;8.10;;;22.70;44.80;;;;;;5017514;28;20903;-70
2022/04/22 10:12:58;;;;;;;8.20;7.40;;;23.20;44.10;;;;;;5017937;28;20443;-70
2022/04/22 10:15:29;;;;;;;7.87;7.17;;;23.60;42.40;;;;;;5017928;28;20525;-71
2022/04/22 10:17:57;;;;;;;7.83;7.13;;;23.90;41.00;;;;;;5017954;28;20784;-71
2022/04/22 10:20:25;;;;;;;8.77;7.87;;;24.20;40.50;;;;;;5017854;28;20447;-71
2022/04/22 10:22:52;;;;;;;8.50;7.80;;;24.70;40.30;;;;;;5017777;28;20451;-70
2022/04/22 10:25:19;;;;;;;8.50;7.00;;;25.20;40.00;;;;;;5017770;28;20447;-70
2022/04/22 10:27:47;;;;;;;6.60;6.03;;;25.40;38.70;;;;;;5017917;28;20475;-70
2022/04/22 10:30:16;;;;;;;10.00;6.90;;;25.50;37.70;;;;;;5017570;28;20447;-71
2022/04/22 10:32:47;;;;;;;8.10;7.50;;;25.50;37.30;;;;;;5017343;28;20475;-70
2022/04/22 10:35:15;;;;;;;8.33;7.27;;;25.70;38.10;;;;;;5018242;28;20479;-70
2022/04/22 10:37:43;;;;;;;8.00;7.40;;;26.00;37.10;;;;;;5017437;28;20501;-71
2022/04/22 10:40:19;;;;;;;6.70;6.20;;;26.40;35.30;;;;;;5017044;28;20451;-71
2022/04/22 10:42:47;;;;;;;7.57;6.97;;;27.10;35.10;;;;;;5016668;28;21005;-71
2022/04/22 10:48:00;;;;;;;7.13;6.63;;;27.90;32.20;;;;;;5017225;28;20450;-69
2022/04/22 10:50:32;;;;;;;6.77;6.27;;;27.90;31.80;;;;;;5017803;28;20467;-69
2022/04/22 10:53:04;;;;;;;6.00;5.50;;;27.70;32.20;;;;;;5016842;28;20462;-69
2022/04/22 10:55:32;;;;;;;6.93;6.10;;;27.80;32.20;;;;;;5016529;28;20896;-69
2022/04/22 10:58:20;;;;;;;6.70;6.10;;;28.00;31.90;;;;;;5016765;28;20513;-69
2022/04/22 11:00:48;;;;;;;6.67;6.03;;;27.80;31.60;;;;;;5010801;28;21009;-69
2022/04/22 11:03:18;;;;;;;5.93;5.43;;;27.50;31.40;;;;;;5016808;28;20454;-69
2022/04/22 11:05:47;;;;;;;5.93;5.43;;;27.20;31.80;;;;;;5017420;28;20459;-69
2022/04/22 11:08:26;;;;;;;6.03;5.53;;;27.00;32.40;;;;;;5016596;28;20521;-69
2022/04/22 11:11:15;;;;;;;7.17;6.57;;;27.30;32.90;;;;;;5016515;28;20475;-69
2022/04/22 11:14:00;;;;;;;6.27;5.87;;;28.10;30.90;;;;;;5016325;28;20808;-69
2022/04/22 11:16:29;;;;;;;6.70;6.17;;;28.90;29.80;;;;;;5015935;28;20475;-69
2022/04/22 11:19:36;;;;;;;8.00;6.33;;;29.80;28.90;;;;;;5016581;28;20486;-69
2022/04/22 11:22:07;;;;;;;6.50;5.97;;;30.50;27.30;;;;;;5016401;28;20462;-69
2022/04/22 11:24:34;;;;;;;23.20;9.37;;;30.40;26.60;;;;;;5016483;28;20531;-69
2022/04/22 11:27:06;;;;;;;5.90;5.40;;;29.90;27.00;;;;;;5016245;28;20439;-69
2022/04/22 11:29:33;;;;;;;5.97;5.37;;;29.40;27.50;;;;;;5015924;28;20868;-69
2022/04/22 11:32:18;;;;;;;8.90;6.10;;;29.10;28.00;;;;;;5016256;28;20486;-69
2022/04/22 11:35:11;;;;;;;5.30;4.90;;;29.00;28.60;;;;;;5015908;28;20443;-69
2022/04/22 11:37:40;;;;;;;6.43;5.93;;;29.20;28.40;;;;;;5016288;28;20443;-69
2022/04/22 11:40:09;;;;;;;5.57;5.17;;;29.60;28.30;;;;;;5016445;28;20490;-69
2022/04/22 11:42:43;;;;;;;5.67;5.37;;;30.40;27.50;;;;;;5016085;28;20486;-69
2022/04/22 11:45:13;;;;;;;5.70;5.20;;;31.10;26.30;;;;;;5016567;28;20435;-69
2022/04/22 11:47:41;;;;;;;5.90;5.50;;;31.50;25.60;;;;;;5016009;28;20455;-69
2022/04/22 11:50:09;;;;;;;5.33;4.97;;;31.70;25.40;;;;;;5015817;28;20451;-69
2022/04/22 11:52:36;;;;;;;5.83;5.43;;;31.50;25.20;;;;;;5015694;28;20478;-69
2022/04/22 11:55:06;;;;;;;6.03;5.53;;;31.30;25.00;;;;;;5015388;28;20985;-69
2022/04/22 11:57:37;;;;;;;6.20;5.80;;;31.00;25.60;;;;;;5016060;28;20450;-69
2022/04/22 12:05:38;;;;;;;6.70;6.07;;;29.80;26.90;;;;;;5015703;28;20403;-69
2022/04/22 12:08:11;;;;;;;6.93;6.23;;;30.30;27.50;;;;;;5015666;28;20427;-69
2022/04/22 12:10:39;;;;;;;7.37;6.70;;;31.30;26.80;;;;;;5015373;28;20439;-69
2022/04/22 12:13:08;;;;;;;8.03;7.13;;;32.00;25.30;;;;;;5015446;28;20545;-69
2022/04/22 12:15:42;;;;;;;7.30;6.77;;;32.80;25.10;;;;;;5015306;28;20482;-69
2022/04/22 12:18:09;;;;;;;6.70;6.10;;;33.70;24.40;;;;;;5015263;28;20493;-68
2022/04/22 12:20:36;;;;;;;7.20;6.60;;;34.60;23.80;;;;;;5015235;28;20446;-68
2022/04/22 12:23:05;;;;;;;7.40;6.90;;;35.10;22.20;;;;;;5015574;28;20451;-69
2022/04/22 12:25:32;;;;;;;23.20;21.40;;;34.90;22.00;;;;;;5015370;28;20469;-70
2022/04/22 12:28:08;;;;;;;9.70;9.00;;;34.30;22.40;;;;;;5014959;28;20447;-69
2022/04/22 12:30:37;;;;;;;6.67;6.17;;;33.70;23.00;;;;;;5014986;28;20438;-69
2022/04/22 12:33:05;;;;;;;6.30;5.80;;;33.40;23.40;;;;;;5014996;28;20455;-69
2022/04/22 12:35:32;;;;;;;6.80;5.70;;;33.50;23.60;;;;;;5014876;28;20487;-69
2022/04/22 12:38:05;;;;;;;6.30;5.90;;;33.90;22.80;;;;;;5015680;28;20454;-69
2022/04/22 12:40:46;;;;;;;6.43;6.03;;;34.00;22.60;;;;;;5014828;28;20438;-69
2022/04/22 12:43:27;;;;;;;6.03;5.63;;;34.70;22.70;;;;;;5014826;28;20497;-69
2022/04/22 12:54:13;;;;;;;5.63;5.13;;;32.20;23.40;;;;;;5014795;28;20407;-70
2022/04/22 12:56:39;;;;;;;5.60;5.20;;;31.40;24.40;;;;;;5014629;28;20491;-70
2022/04/22 12:59:08;;;;;;;6.40;5.47;;;30.90;25.10;;;;;;5014536;28;20447;-70
2022/04/22 13:01:37;;;;;;;6.23;5.63;;;30.40;25.60;;;;;;5014094;28;20486;-70
2022/04/22 13:04:05;;;;;;;5.50;5.10;;;30.20;26.00;;;;;;5014507;28;20498;-70
2022/04/22 13:06:39;;;;;;;5.50;5.10;;;30.00;26.00;;;;;;5014061;28;21128;-70
2022/04/22 13:09:09;;;;;;;6.23;5.80;;;29.90;25.90;;;;;;5014437;28;20450;-69
2022/04/22 13:11:35;;;;;;;7.13;5.63;;;29.80;26.10;;;;;;5014388;28;20471;-69
2022/04/22 13:14:03;;;;;;;5.67;5.27;;;30.60;26.20;;;;;;5014237;28;20454;-69
2022/04/22 13:16:31;;;;;;;6.23;5.80;;;31.20;25.30;;;;;;5014131;28;20827;-69
2022/04/22 13:18:58;;;;;;;7.63;6.93;;;31.50;24.90;;;;;;5013153;28;20461;-69
2022/04/22 13:21:25;;;;;;;8.17;7.40;;;31.20;25.40;;;;;;5013842;28;20500;-70
2022/04/22 13:23:52;;;;;;;9.47;6.90;;;30.60;25.80;;;;;;5014258;28;20434;-70
2022/04/22 13:26:19;;;;;;;8.20;7.60;;;29.90;26.70;;;;;;5013860;28;20450;-70
2022/04/22 13:28:46;;;;;;;8.23;7.63;;;29.00;27.80;;;;;;5014054;28;20817;-69
2022/04/22 13:31:13;;;;;;;8.83;8.03;;;28.20;29.30;;;;;;5013603;28;21001;-69
2022/04/22 13:33:41;;;;;;;6.67;6.00;;;27.70;29.80;;;;;;5014012;28;20505;-69
2022/04/22 13:36:10;;;;;;;6.60;6.10;;;27.40;30.30;;;;;;5013608;28;20861;-69
2022/04/22 13:38:38;;;;;;;7.70;7.00;;;27.70;30.70;;;;;;5013960;28;20463;-69
2022/04/22 13:41:05;;;;;;;8.20;7.50;;;28.80;29.30;;;;;;5013787;28;20467;-69
2022/04/22 13:43:32;;;;;;;7.80;7.20;;;29.10;28.10;;;;;;5013841;28;20451;-69
2022/04/22 13:54:13;;;;;;;7.87;7.03;;;28.30;29.10;;;;;;5013759;28;20419;-69
2022/04/22 13:56:40;;;;;;;8.13;7.33;;;28.30;29.50;;;;;;5013836;28;20487;-69
2022/04/22 13:59:07;;;;;;;9.20;6.37;;;28.20;29.40;;;;;;5013724;28;20435;-69
2022/04/22 14:01:34;;;;;;;8.80;8.10;;;28.10;29.60;;;;;;5013676;28;20467;-69
2022/04/22 14:04:02;;;;;;;10.13;7.80;;;27.90;30.00;;;;;;5013594;28;20843;-69